Time;durP1;ratioP1;P1;durP2;ratioP2;P2;SDS_P1;SDS_P2;PMS_P1;PMS_P2;Temp;Humidity;BMP_temperature;BMP_pressure;BME280_temperature;BME280_humidity;BME280_pressure;Samples;Min_cycle;Max_cycle;Signal;HPM_P1;HPM_P2
2024/04/21 00:00:32;;;;;;;10.70;2.53;;;4.50;99.90;;;;;;5336222;26;19997;-56
2024/04/21 00:02:57;;;;;;;5.82;1.98;;;4.50;99.90;;;;;;5317475;26;20002;-55
2024/04/21 00:05:23;;;;;;;14.63;2.30;;;4.50;99.90;;;;;;5329899;26;20029;-53
2024/04/21 00:07:48;;;;;;;12.68;2.72;;;4.60;99.90;;;;;;5327337;26;20007;-56
2024/04/21 00:10:14;;;;;;;13.27;1.85;;;4.60;99.90;;;;;;5329361;26;20001;-53
2024/04/21 00:12:40;;;;;;;15.60;2.47;;;4.50;99.90;;;;;;5331101;26;20013;-54
2024/04/21 00:15:06;;;;;;;19.30;3.88;;;4.40;99.90;;;;;;5333384;26;20001;-56
2024/04/21 00:17:31;;;;;;;8.50;1.83;;;4.30;99.90;;;;;;5321799;26;20017;-55
2024/04/21 00:19:57;;;;;;;14.32;1.95;;;4.30;99.90;;;;;;5325261;26;20070;-56
2024/04/21 00:22:22;;;;;;;17.80;2.38;;;4.30;99.90;;;;;;5338698;26;20020;-53
2024/04/21 00:24:48;;;;;;;10.00;1.77;;;4.20;99.90;;;;;;5335861;26;20005;-59
2024/04/21 00:27:13;;;;;;;11.32;1.70;;;4.10;99.90;;;;;;5323308;26;20001;-57
2024/04/21 00:29:39;;;;;;;18.88;1.95;;;4.10;99.90;;;;;;5322268;26;19997;-53
2024/04/21 00:32:05;;;;;;;10.02;2.40;;;4.20;99.90;;;;;;5319954;26;20008;-53
2024/04/21 00:34:30;;;;;;;13.88;1.90;;;4.20;99.90;;;;;;5322323;26;20005;-56
2024/04/21 00:36:56;;;;;;;12.10;2.10;;;4.20;99.90;;;;;;5324930;26;20017;-57
2024/04/21 00:39:21;;;;;;;10.30;1.90;;;4.20;99.90;;;;;;5324676;26;20016;-54
2024/04/21 00:41:47;;;;;;;20.75;3.00;;;4.20;99.90;;;;;;5324209;26;20006;-52
2024/04/21 00:44:12;;;;;;;16.15;1.88;;;4.20;99.90;;;;;;5323092;26;19997;-54
2024/04/21 00:46:39;;;;;;;15.55;2.65;;;4.20;99.90;;;;;;5325463;26;20008;-58
2024/04/21 00:49:07;;;;;;;24.90;2.97;;;4.20;99.90;;;;;;5325399;26;20005;-58
2024/04/21 00:51:34;;;;;;;7.95;2.10;;;4.20;99.90;;;;;;5322741;26;20011;-55
2024/04/21 00:54:01;;;;;;;11.43;2.00;;;4.30;99.90;;;;;;5388991;21;19999;-54
2024/04/21 00:56:27;;;;;;;23.50;3.78;;;4.20;99.90;;;;;;5411305;26;20388;-55
2024/04/21 00:58:53;;;;;;;13.32;2.03;;;4.20;99.90;;;;;;5388168;26;20362;-56
2024/04/21 01:01:20;;;;;;;13.32;2.50;;;4.20;99.90;;;;;;5417942;26;20322;-55
2024/04/21 01:03:45;;;;;;;12.48;1.90;;;4.20;99.90;;;;;;5397585;26;19996;-57
2024/04/21 01:06:11;;;;;;;21.00;1.73;;;4.20;99.90;;;;;;5382652;26;20011;-56
2024/04/21 01:08:36;;;;;;;16.23;2.47;;;4.20;99.90;;;;;;5382473;26;20000;-54
2024/04/21 01:11:02;;;;;;;14.48;3.35;;;4.20;99.90;;;;;;5382881;26;20458;-57
2024/04/21 01:13:28;;;;;;;19.52;2.53;;;4.20;99.90;;;;;;5382242;26;20054;-55
2024/04/21 01:15:54;;;;;;;20.58;2.88;;;4.20;99.90;;;;;;5381937;26;20001;-55
2024/04/21 01:18:20;;;;;;;8.80;2.50;;;4.30;99.90;;;;;;5408055;26;20353;-54
2024/04/21 01:20:46;;;;;;;19.02;2.65;;;4.30;99.90;;;;;;5382163;26;20012;-55
2024/04/21 01:23:18;;;;;;;18.05;3.40;;;4.30;99.90;;;;;;5382263;26;20070;-57
2024/04/21 01:25:46;;;;;;;20.42;2.85;;;4.30;99.90;;;;;;5382505;26;20008;-56
2024/04/21 01:28:12;;;;;;;18.92;2.97;;;4.30;99.90;;;;;;5382011;26;20015;-54
2024/04/21 01:30:37;;;;;;;8.68;1.55;;;4.30;99.90;;;;;;5362787;26;20004;-56
2024/04/21 01:33:03;;;;;;;9.65;2.10;;;4.20;99.90;;;;;;5386766;26;20011;-58
2024/04/21 01:35:29;;;;;;;19.75;2.40;;;4.20;99.90;;;;;;5417363;26;20446;-55
2024/04/21 01:37:54;;;;;;;11.55;2.38;;;4.20;99.90;;;;;;5403928;26;20000;-55
2024/04/21 01:40:20;;;;;;;15.98;2.25;;;4.10;99.90;;;;;;5380549;26;20449;-55
2024/04/21 01:42:46;;;;;;;10.85;2.22;;;4.20;99.90;;;;;;5382069;26;20042;-57
2024/04/21 01:45:11;;;;;;;20.23;4.90;;;4.20;99.90;;;;;;5382237;26;20362;-58
2024/04/21 01:47:37;;;;;;;16.40;2.17;;;4.20;99.90;;;;;;5381934;26;20362;-57
2024/04/21 01:50:03;;;;;;;8.45;2.25;;;4.20;99.90;;;;;;5381634;26;20000;-57
2024/04/21 01:52:28;;;;;;;13.00;2.40;;;4.20;99.90;;;;;;5381803;26;20403;-56
2024/04/21 01:54:54;;;;;;;16.50;2.63;;;4.20;99.90;;;;;;5361007;26;20050;-57
2024/04/21 01:57:19;;;;;;;13.88;2.13;;;4.20;99.90;;;;;;5381492;26;19992;-55
2024/04/21 01:59:45;;;;;;;15.85;2.90;;;4.10;99.90;;;;;;5381550;26;19992;-55
2024/04/21 02:02:11;;;;;;;15.18;2.78;;;4.10;99.90;;;;;;5381542;26;20081;-54
2024/04/21 02:04:37;;;;;;;14.88;2.50;;;4.10;99.90;;;;;;5381492;26;20003;-57
2024/04/21 02:07:04;;;;;;;12.88;1.58;;;4.00;99.90;;;;;;5381529;26;20004;-57
2024/04/21 02:09:30;;;;;;;14.52;3.03;;;4.00;99.90;;;;;;5381819;26;20023;-56
2024/04/21 02:11:56;;;;;;;10.93;2.42;;;3.90;99.90;;;;;;5381323;26;20006;-55
2024/04/21 02:14:22;;;;;;;19.40;2.13;;;3.90;99.90;;;;;;5379245;26;20046;-55
2024/04/21 02:16:47;;;;;;;17.45;1.77;;;3.80;99.90;;;;;;5346214;26;20009;-56
2024/04/21 02:19:13;;;;;;;11.55;1.30;;;3.70;99.90;;;;;;5346238;26;20001;-58
2024/04/21 02:21:38;;;;;;;9.77;1.17;;;3.60;99.90;;;;;;5346441;26;19997;-57
2024/04/21 02:24:04;;;;;;;6.90;1.60;;;3.50;99.90;;;;;;5359699;26;20024;-55
2024/04/21 02:26:30;;;;;;;10.32;1.67;;;3.50;99.90;;;;;;5380695;26;19996;-56
2024/04/21 02:28:55;;;;;;;6.10;1.20;;;3.50;99.90;;;;;;5380853;26;19992;-57
2024/04/21 02:31:21;;;;;;;8.90;1.42;;;3.40;99.90;;;;;;5381203;26;20331;-55
2024/04/21 02:33:46;;;;;;;9.55;2.72;;;3.40;99.90;;;;;;5380773;26;20002;-55
2024/04/21 02:36:12;;;;;;;11.48;1.77;;;3.30;99.90;;;;;;5375596;26;19997;-54
2024/04/21 02:38:37;;;;;;;10.68;1.55;;;3.20;99.90;;;;;;5345803;26;20001;-55
2024/04/21 02:41:03;;;;;;;9.40;2.38;;;3.10;99.90;;;;;;5373402;26;20346;-54
2024/04/21 02:43:29;;;;;;;12.07;2.55;;;3.00;99.90;;;;;;5381067;26;20427;-56
2024/04/21 02:45:54;;;;;;;16.67;2.50;;;3.00;99.90;;;;;;5381207;26;20002;-54
2024/04/21 02:48:20;;;;;;;12.15;2.00;;;3.00;99.90;;;;;;5381015;26;20011;-55
2024/04/21 02:50:46;;;;;;;18.70;2.78;;;3.00;99.90;;;;;;5380825;26;20001;-55
2024/04/21 02:53:11;;;;;;;15.05;2.20;;;3.00;99.90;;;;;;5379622;26;20468;-54
2024/04/21 02:55:41;;;;;;;6.03;1.58;;;3.00;99.90;;;;;;5365927;26;20019;-55
2024/04/21 02:58:07;;;;;;;10.30;1.98;;;3.00;99.90;;;;;;5378343;26;20010;-57
2024/04/21 03:00:32;;;;;;;13.45;1.83;;;3.00;99.90;;;;;;5380312;26;19996;-57
2024/04/21 03:02:58;;;;;;;15.82;3.13;;;3.00;99.90;;;;;;5380258;26;20000;-54
2024/04/21 03:05:23;;;;;;;7.05;1.60;;;3.00;99.90;;;;;;5380613;26;20345;-57
2024/04/21 03:07:49;;;;;;;11.20;2.33;;;2.90;99.90;;;;;;5380569;26;20345;-55
2024/04/21 03:10:14;;;;;;;13.18;2.05;;;2.90;99.90;;;;;;5380528;26;20445;-56
2024/04/21 03:12:40;;;;;;;12.65;2.50;;;2.90;99.90;;;;;;5380854;26;19996;-55
2024/04/21 03:15:06;;;;;;;6.82;1.38;;;2.80;99.90;;;;;;5380699;26;19996;-54
2024/04/21 03:17:32;;;;;;;7.90;1.75;;;2.70;99.90;;;;;;5380646;26;20315;-56
2024/04/21 03:19:57;;;;;;;9.18;2.25;;;2.70;99.90;;;;;;5380402;26;19996;-55
2024/04/21 03:22:23;;;;;;;7.40;2.20;;;2.70;99.90;;;;;;5380860;26;20007;-55
2024/04/21 03:24:49;;;;;;;16.17;3.95;;;2.60;99.90;;;;;;5364935;26;20362;-56
2024/04/21 03:27:14;;;;;;;17.80;5.07;;;2.60;99.90;;;;;;5345146;26;20012;-55
2024/04/21 03:29:40;;;;;;;15.25;3.97;;;2.60;99.90;;;;;;5354003;26;20095;-57
2024/04/21 03:32:05;;;;;;;11.95;4.43;;;2.50;99.90;;;;;;5380255;26;20008;-56
2024/04/21 03:34:31;;;;;;;13.10;4.05;;;2.50;99.90;;;;;;5379676;26;19997;-54
2024/04/21 03:36:57;;;;;;;18.15;4.57;;;2.50;99.90;;;;;;5379887;26;20543;-56
2024/04/21 03:39:22;;;;;;;21.90;4.22;;;2.40;99.90;;;;;;5380012;26;20398;-54
2024/04/21 03:41:48;;;;;;;15.52;4.53;;;2.40;99.90;;;;;;5380240;26;20000;-56
2024/04/21 03:44:13;;;;;;;12.93;4.28;;;2.30;99.90;;;;;;5380425;26;19996;-54
2024/04/21 03:46:39;;;;;;;13.93;4.97;;;2.20;99.90;;;;;;5379975;26;20024;-54
2024/04/21 03:49:04;;;;;;;20.15;6.03;;;2.30;99.90;;;;;;5379495;26;19996;-55
2024/04/21 03:51:30;;;;;;;11.73;5.68;;;2.30;99.90;;;;;;5377879;26;20383;-57
2024/04/21 03:53:55;;;;;;;10.70;5.28;;;2.20;99.90;;;;;;5358853;26;20449;-57
2024/04/21 03:56:21;;;;;;;21.65;6.90;;;2.20;99.90;;;;;;5379383;26;20045;-54
2024/04/21 03:58:47;;;;;;;15.00;6.13;;;2.20;99.90;;;;;;5378831;26;20001;-56
2024/04/21 04:01:12;;;;;;;19.58;7.03;;;2.20;99.90;;;;;;5377472;26;19996;-57
2024/04/21 04:03:40;;;;;;;15.25;6.20;;;2.10;99.90;;;;;;5379713;26;20072;-57
2024/04/21 04:06:09;;;;;;;24.15;7.53;;;2.20;99.90;;;;;;5382203;26;20004;-54
2024/04/21 04:08:34;;;;;;;15.95;6.55;;;2.20;99.90;;;;;;5383062;26;20011;-58
2024/04/21 04:11:00;;;;;;;17.88;6.25;;;2.20;99.90;;;;;;5382885;26;20028;-54
2024/04/21 04:13:25;;;;;;;19.08;7.20;;;2.10;99.90;;;;;;5382579;26;19996;-55
2024/04/21 04:15:52;;;;;;;23.55;7.05;;;2.10;99.90;;;;;;5382502;26;20004;-55
2024/04/21 04:18:17;;;;;;;22.52;6.43;;;2.00;99.90;;;;;;5382296;26;20468;-54
2024/04/21 04:20:43;;;;;;;21.40;6.10;;;2.00;99.90;;;;;;5382795;26;20062;-57
2024/04/21 04:23:10;;;;;;;16.23;7.97;;;2.00;99.90;;;;;;5382566;26;20001;-57
2024/04/21 04:25:35;;;;;;;11.98;6.03;;;2.00;99.90;;;;;;5382327;26;20000;-54
2024/04/21 04:28:01;;;;;;;16.88;6.35;;;2.00;99.90;;;;;;5382529;26;20331;-55
2024/04/21 04:30:27;;;;;;;16.30;7.40;;;1.90;99.90;;;;;;5382513;26;20000;-57
2024/04/21 04:32:52;;;;;;;15.55;7.03;;;2.00;99.90;;;;;;5381526;26;20000;-54
2024/04/21 04:35:18;;;;;;;19.27;7.60;;;1.90;99.90;;;;;;5382433;26;20004;-56
2024/04/21 04:37:43;;;;;;;21.65;7.95;;;1.90;99.90;;;;;;5382058;26;20018;-56
2024/04/21 04:40:09;;;;;;;22.05;7.80;;;1.90;99.90;;;;;;5380148;26;20000;-55
2024/04/21 04:42:35;;;;;;;15.27;7.25;;;1.90;99.90;;;;;;5380411;26;20456;-55
2024/04/21 04:45:01;;;;;;;26.83;8.88;;;1.90;99.90;;;;;;5381955;26;20000;-55
2024/04/21 04:47:26;;;;;;;18.95;8.05;;;1.90;99.90;;;;;;5381994;26;20346;-55
2024/04/21 04:49:52;;;;;;;20.65;7.97;;;2.00;99.90;;;;;;5382277;26;20000;-55
2024/04/21 04:52:17;;;;;;;17.85;8.77;;;2.00;99.90;;;;;;5382109;26;20023;-56
2024/04/21 04:54:43;;;;;;;18.45;6.85;;;2.10;99.90;;;;;;5366304;26;20000;-54
2024/04/21 04:57:08;;;;;;;31.95;8.73;;;2.10;99.90;;;;;;5381806;26;20028;-57
2024/04/21 04:59:34;;;;;;;20.42;6.80;;;2.20;99.90;;;;;;5382302;26;20012;-55
2024/04/21 05:01:59;;;;;;;16.00;6.35;;;2.30;99.90;;;;;;5382126;26;20069;-54
2024/04/21 05:04:25;;;;;;;18.17;6.32;;;2.40;99.90;;;;;;5382042;26;20515;-54
2024/04/21 05:06:51;;;;;;;15.93;5.25;;;2.50;99.90;;;;;;5382212;26;19996;-56
2024/04/21 05:09:16;;;;;;;23.10;6.50;;;2.70;99.90;;;;;;5382251;26;20011;-55
2024/04/21 05:11:42;;;;;;;17.10;5.68;;;2.70;99.90;;;;;;5382334;26;20015;-57
2024/04/21 05:14:07;;;;;;;14.77;6.97;;;2.80;99.90;;;;;;5379990;26;20001;-57
2024/04/21 05:16:33;;;;;;;17.13;7.18;;;2.80;99.90;;;;;;5381886;26;20000;-57
2024/04/21 05:18:58;;;;;;;19.38;6.45;;;2.90;99.90;;;;;;5381694;26;20004;-58
2024/04/21 05:21:24;;;;;;;21.45;8.68;;;2.90;99.90;;;;;;5381873;26;20004;-57
2024/04/21 05:23:49;;;;;;;21.00;8.45;;;2.90;99.90;;;;;;5381739;26;20000;-56
2024/04/21 05:26:15;;;;;;;19.08;8.25;;;2.90;99.90;;;;;;5382047;26;20018;-54
2024/04/21 05:28:40;;;;;;;21.92;9.68;;;2.90;99.90;;;;;;5381831;26;20054;-57
2024/04/21 05:31:06;;;;;;;23.08;10.00;;;3.00;99.90;;;;;;5381708;26;20004;-57
2024/04/21 05:33:32;;;;;;;17.05;8.18;;;3.00;99.90;;;;;;5381844;26;20412;-57
2024/04/21 05:35:57;;;;;;;14.82;7.32;;;3.00;99.90;;;;;;5382018;26;20015;-55
2024/04/21 05:38:23;;;;;;;22.02;7.70;;;3.20;99.90;;;;;;5382130;26;20001;-54
2024/04/21 05:40:48;;;;;;;26.77;6.55;;;3.20;99.90;;;;;;5382003;26;20000;-55
2024/04/21 05:43:15;;;;;;;14.95;6.35;;;3.20;99.90;;;;;;5381835;26;20015;-54
2024/04/21 05:45:40;;;;;;;15.43;6.43;;;3.20;99.90;;;;;;5381498;26;20000;-57
2024/04/21 05:48:06;;;;;;;17.80;6.32;;;3.40;99.90;;;;;;5381610;26;20051;-57
2024/04/21 05:50:32;;;;;;;19.27;6.25;;;3.60;99.90;;;;;;5381799;26;20000;-56
2024/04/21 05:52:57;;;;;;;17.02;5.00;;;3.70;99.90;;;;;;5381222;26;20389;-56
2024/04/21 05:55:23;;;;;;;13.50;5.72;;;3.80;99.90;;;;;;5360643;26;20004;-56
2024/04/21 05:57:48;;;;;;;11.50;5.85;;;3.90;99.90;;;;;;5381776;26;19996;-56
2024/04/21 06:00:15;;;;;;;20.02;6.00;;;3.90;99.90;;;;;;5346372;26;19997;-55
2024/04/21 06:02:41;;;;;;;9.48;5.03;;;3.90;99.90;;;;;;5346631;26;20008;-57
2024/04/21 06:05:06;;;;;;;21.73;6.35;;;3.80;99.90;;;;;;5377861;26;20405;-55
2024/04/21 06:07:32;;;;;;;14.13;6.53;;;3.70;99.90;;;;;;5381942;26;20000;-54
2024/04/21 06:09:58;;;;;;;14.10;5.30;;;3.70;99.90;;;;;;5381434;26;19996;-54
2024/04/21 06:12:24;;;;;;;8.85;4.97;;;3.70;99.90;;;;;;5380031;26;20044;-57
2024/04/21 06:14:50;;;;;;;11.73;4.40;;;4.00;99.90;;;;;;5381679;26;20373;-56
2024/04/21 06:17:15;;;;;;;10.10;4.85;;;4.20;99.90;;;;;;5381805;26;19996;-58
2024/04/21 06:19:41;;;;;;;11.10;5.10;;;4.40;99.90;;;;;;5381568;26;20012;-54
2024/04/21 06:22:07;;;;;;;10.30;4.97;;;4.60;99.90;;;;;;5381780;26;20568;-55
2024/04/21 06:24:32;;;;;;;10.80;5.55;;;4.70;99.90;;;;;;5381392;26;20016;-56
2024/04/21 06:26:58;;;;;;;8.68;4.30;;;4.70;99.90;;;;;;5380074;26;20001;-56
2024/04/21 06:29:23;;;;;;;12.50;3.83;;;4.80;99.90;;;;;;5381330;26;20048;-56
2024/04/21 06:31:49;;;;;;;11.52;3.40;;;4.80;99.90;;;;;;5381845;26;20465;-58
2024/04/21 06:34:15;;;;;;;12.50;3.67;;;4.70;99.90;;;;;;5381209;26;19996;-56
2024/04/21 06:36:40;;;;;;;11.95;3.53;;;4.80;99.90;;;;;;5381276;26;20421;-57
2024/04/21 06:39:06;;;;;;;9.43;3.13;;;5.00;99.90;;;;;;5381706;26;20328;-54
2024/04/21 06:41:31;;;;;;;9.98;3.05;;;5.00;99.90;;;;;;5381861;26;20000;-56
2024/04/21 06:43:57;;;;;;;14.35;4.00;;;4.90;99.90;;;;;;5381197;26;20055;-55
2024/04/21 06:46:22;;;;;;;10.70;4.05;;;4.90;99.90;;;;;;5381323;26;20000;-55
2024/04/21 06:48:48;;;;;;;15.38;3.55;;;5.10;99.90;;;;;;5379883;26;20446;-57
2024/04/21 06:51:13;;;;;;;5.30;2.35;;;5.20;99.90;;;;;;5381278;26;20078;-54
2024/04/21 06:53:39;;;;;;;15.63;3.80;;;5.50;99.90;;;;;;5379676;26;20065;-56
2024/04/21 06:56:05;;;;;;;9.48;3.05;;;5.60;99.90;;;;;;5355531;26;20012;-54
2024/04/21 06:58:30;;;;;;;7.88;1.98;;;5.80;99.90;;;;;;5367166;26;20051;-57
2024/04/21 07:00:56;;;;;;;11.95;2.90;;;5.60;99.90;;;;;;5376248;26;20004;-58
2024/04/21 07:03:22;;;;;;;8.38;2.45;;;5.70;99.90;;;;;;5371929;26;19992;-58
2024/04/21 07:05:48;;;;;;;11.13;3.05;;;5.80;99.90;;;;;;5375252;26;20077;-55
2024/04/21 07:08:14;;;;;;;7.72;3.35;;;5.60;99.90;;;;;;5371566;26;20451;-55
2024/04/21 07:10:41;;;;;;;8.95;2.58;;;5.70;99.90;;;;;;5370390;26;20019;-56
2024/04/21 07:13:06;;;;;;;7.30;2.22;;;5.80;99.90;;;;;;5375437;26;20130;-56
2024/04/21 07:15:32;;;;;;;12.45;2.65;;;5.70;99.90;;;;;;5374396;26;19996;-57
2024/04/21 07:17:57;;;;;;;10.73;2.50;;;5.60;99.90;;;;;;5367073;26;20407;-56
2024/04/21 07:20:23;;;;;;;9.38;5.78;;;5.60;99.90;;;;;;5372784;26;20343;-57
2024/04/21 07:22:49;;;;;;;10.02;2.63;;;5.40;99.90;;;;;;5374222;26;20004;-58
2024/04/21 07:25:14;;;;;;;10.63;3.45;;;5.30;99.90;;;;;;5369654;26;20011;-58
2024/04/21 07:27:43;;;;;;;11.93;2.13;;;5.30;99.90;;;;;;5366890;26;20751;-56
2024/04/21 07:30:09;;;;;;;16.92;5.68;;;5.20;99.90;;;;;;5365064;26;20015;-57
2024/04/21 07:32:35;;;;;;;12.20;2.60;;;5.10;99.90;;;;;;5368288;26;20000;-57
2024/04/21 07:35:00;;;;;;;6.30;2.00;;;5.10;99.90;;;;;;5368916;26;19993;-58
2024/04/21 07:37:26;;;;;;;4.50;2.50;;;5.20;99.90;;;;;;5368325;26;20081;-58
2024/04/21 07:39:52;;;;;;;6.93;1.70;;;5.20;99.90;;;;;;5370880;26;20003;-56
2024/04/21 07:42:18;;;;;;;5.82;1.42;;;5.20;99.90;;;;;;5371534;26;20586;-55
2024/04/21 07:44:43;;;;;;;5.88;1.58;;;5.20;99.90;;;;;;5372055;26;20119;-58
2024/04/21 07:47:09;;;;;;;12.43;1.90;;;5.00;99.90;;;;;;5371438;26;19996;-58
2024/04/21 07:49:34;;;;;;;9.68;2.50;;;5.00;99.90;;;;;;5373436;26;20477;-58
2024/04/21 07:52:00;;;;;;;9.63;2.08;;;5.00;99.90;;;;;;5373708;26;20382;-55
2024/04/21 07:54:25;;;;;;;9.25;1.67;;;5.00;99.90;;;;;;5375949;26;20007;-57
2024/04/21 07:56:51;;;;;;;5.10;1.63;;;4.90;99.90;;;;;;5322028;26;20048;-57
2024/04/21 07:59:16;;;;;;;6.53;1.23;;;5.00;99.90;;;;;;5329008;26;20466;-54
2024/04/21 08:01:42;;;;;;;3.88;1.30;;;5.00;99.90;;;;;;5343595;26;20001;-55
2024/04/21 08:04:07;;;;;;;5.88;1.27;;;5.10;99.90;;;;;;5345536;26;20000;-55
2024/04/21 08:06:33;;;;;;;3.08;1.13;;;5.10;99.90;;;;;;5349523;26;19997;-55
2024/04/21 08:08:59;;;;;;;2.80;1.52;;;5.20;99.90;;;;;;5339676;26;20001;-56
2024/04/21 08:11:25;;;;;;;5.53;1.65;;;5.30;99.90;;;;;;5343123;26;20004;-54
2024/04/21 08:13:51;;;;;;;3.00;1.65;;;5.40;99.90;;;;;;5344859;26;20015;-57
2024/04/21 08:16:16;;;;;;;2.63;1.33;;;5.40;99.90;;;;;;5343827;26;20474;-54
2024/04/21 08:18:42;;;;;;;6.25;2.10;;;5.40;99.90;;;;;;5345237;26;19993;-56
2024/04/21 08:21:09;;;;;;;2.50;1.27;;;5.40;99.90;;;;;;5347235;26;20515;-58
2024/04/21 08:23:34;;;;;;;3.08;1.38;;;5.50;99.90;;;;;;5341615;26;20411;-58
2024/04/21 08:26:03;;;;;;;2.42;1.20;;;5.40;99.90;;;;;;5343144;26;20042;-57
2024/04/21 08:28:29;;;;;;;3.95;1.50;;;5.40;99.90;;;;;;5340394;26;19997;-55
2024/04/21 08:30:54;;;;;;;2.95;1.67;;;5.40;99.90;;;;;;5342838;26;20032;-56
2024/04/21 08:33:20;;;;;;;3.72;1.30;;;5.30;99.90;;;;;;5338380;26;20016;-55
2024/04/21 08:35:56;;;;;;;4.95;1.80;;;5.20;99.90;;;;;;5334968;26;20013;-55
2024/04/21 08:38:22;;;;;;;4.05;1.45;;;5.20;99.90;;;;;;5334978;26;20087;-56
2024/04/21 08:40:51;;;;;;;4.18;1.90;;;5.30;99.90;;;;;;5337725;26;20005;-56
2024/04/21 08:43:24;;;;;;;1.92;1.40;;;5.20;99.90;;;;;;5337110;26;20008;-55
2024/04/21 08:45:55;;;;;;;4.55;2.15;;;5.20;99.90;;;;;;5334535;26;20039;-58
2024/04/21 08:48:21;;;;;;;4.15;1.85;;;5.10;99.90;;;;;;5338996;26;20428;-58
2024/04/21 08:50:48;;;;;;;2.30;1.60;;;4.90;99.90;;;;;;5335663;26;20025;-58
2024/04/21 08:53:13;;;;;;;3.47;1.75;;;5.00;99.90;;;;;;5338790;26;19992;-58
2024/04/21 08:55:45;;;;;;;2.78;1.65;;;5.10;99.90;;;;;;5361545;26;20007;-57
2024/04/21 08:58:12;;;;;;;2.30;1.65;;;5.20;99.90;;;;;;5338605;26;20466;-58
2024/04/21 09:00:38;;;;;;;3.30;1.77;;;5.30;99.90;;;;;;5347122;26;19997;-57
2024/04/21 09:03:04;;;;;;;3.40;1.80;;;5.50;99.90;;;;;;5344460;26;20005;-55
2024/04/21 09:05:32;;;;;;;3.83;1.90;;;5.60;99.90;;;;;;5344312;26;20076;-58
2024/04/21 09:07:58;;;;;;;3.15;1.70;;;5.70;99.90;;;;;;5349114;26;20098;-58
2024/04/21 09:10:25;;;;;;;3.97;2.35;;;5.90;99.90;;;;;;5352734;26;20469;-56
2024/04/21 09:12:52;;;;;;;3.55;1.88;;;6.00;99.90;;;;;;5345026;26;20009;-58
2024/04/21 09:15:17;;;;;;;3.47;2.25;;;6.00;99.90;;;;;;5344109;26;20025;-55
2024/04/21 09:17:43;;;;;;;3.38;2.17;;;6.10;99.90;;;;;;5351617;26;20339;-58
2024/04/21 09:20:09;;;;;;;4.93;1.88;;;6.30;99.90;;;;;;5344459;26;20422;-56
2024/04/21 09:22:36;;;;;;;3.72;1.92;;;6.60;99.90;;;;;;5350858;26;20068;-56
2024/04/21 09:25:02;;;;;;;3.45;2.20;;;6.70;99.90;;;;;;5346753;26;20009;-57
2024/04/21 09:27:29;;;;;;;4.20;2.15;;;7.00;99.90;;;;;;5340762;26;20023;-55
2024/04/21 09:29:58;;;;;;;2.67;2.00;;;7.60;99.90;;;;;;5348208;26;19997;-56
2024/04/21 09:32:27;;;;;;;2.78;1.95;;;8.70;99.90;;;;;;5344548;26;20023;-56
2024/04/21 09:34:54;;;;;;;2.55;1.83;;;9.90;99.90;;;;;;5345011;26;20009;-58
2024/04/21 09:37:20;;;;;;;3.08;1.70;;;10.60;99.90;;;;;;5343310;26;20010;-58
2024/04/21 09:39:46;;;;;;;2.17;1.73;;;11.20;99.90;;;;;;5342326;26;20013;-59
2024/04/21 09:42:15;;;;;;;2.40;1.75;;;11.40;97.70;;;;;;5345718;26;20001;-59
2024/04/21 09:44:42;;;;;;;1.92;1.55;;;11.40;98.60;;;;;;5347700;26;19996;-58
2024/04/21 09:47:08;;;;;;;3.03;1.73;;;11.40;96.20;;;;;;5351009;26;20011;-58
2024/04/21 09:49:34;;;;;;;5.28;2.08;;;11.10;95.50;;;;;;5347963;26;20354;-58
2024/04/21 09:52:03;;;;;;;2.45;1.75;;;10.90;96.70;;;;;;5350325;26;20008;-57
2024/04/21 09:54:29;;;;;;;2.08;1.42;;;10.60;96.70;;;;;;5350271;26;20012;-58
2024/04/21 09:57:04;;;;;;;3.20;1.95;;;10.00;97.90;;;;;;5327314;26;20005;-55
2024/04/21 09:59:30;;;;;;;2.33;1.50;;;10.10;97.60;;;;;;5344997;26;20052;-58
2024/04/21 10:01:59;;;;;;;2.15;1.50;;;9.90;97.30;;;;;;5338421;26;20001;-57
2024/04/21 10:04:29;;;;;;;2.53;1.60;;;9.40;98.00;;;;;;5340281;26;20004;-55
2024/04/21 10:06:55;;;;;;;3.83;1.75;;;9.30;99.50;;;;;;5337149;26;20033;-56
2024/04/21 10:09:22;;;;;;;3.17;1.65;;;8.80;99.90;;;;;;5339899;26;20011;-56
2024/04/21 10:11:49;;;;;;;3.00;1.90;;;8.60;99.90;;;;;;5338410;26;20465;-57
2024/04/21 10:14:16;;;;;;;2.35;1.48;;;8.40;99.90;;;;;;5360413;26;20465;-57
2024/04/21 10:16:42;;;;;;;2.67;1.75;;;8.50;99.90;;;;;;5340219;26;20477;-56
2024/04/21 10:19:08;;;;;;;2.97;1.65;;;8.70;99.90;;;;;;5338546;26;20097;-58
2024/04/21 10:21:35;;;;;;;2.70;1.60;;;8.60;99.20;;;;;;5343043;26;20335;-56
2024/04/21 10:24:01;;;;;;;3.13;1.88;;;8.90;99.90;;;;;;5341886;26;20289;-55
2024/04/21 10:26:29;;;;;;;4.38;1.83;;;9.40;99.40;;;;;;5344109;26;19993;-58
2024/04/21 10:29:06;;;;;;;2.88;1.50;;;9.80;99.30;;;;;;5340808;26;20045;-59
2024/04/21 10:31:31;;;;;;;4.38;1.75;;;10.10;98.60;;;;;;5339486;26;20015;-55
2024/04/21 10:34:09;;;;;;;3.10;1.90;;;10.40;98.00;;;;;;5344042;26;20039;-59
2024/04/21 10:36:43;;;;;;;2.72;2.00;;;10.20;98.00;;;;;;5343315;26;20023;-56
2024/04/21 10:39:10;;;;;;;2.22;1.50;;;9.90;96.80;;;;;;5344268;26;20013;-56
2024/04/21 10:41:46;;;;;;;4.30;1.52;;;10.00;99.00;;;;;;5343874;26;20081;-56
2024/04/21 10:44:12;;;;;;;3.08;1.70;;;9.90;97.20;;;;;;5343050;26;20091;-58
2024/04/21 10:46:37;;;;;;;2.92;1.40;;;9.70;96.30;;;;;;5338724;26;20732;-58
2024/04/21 10:49:03;;;;;;;4.28;1.70;;;9.80;97.10;;;;;;5342395;26;20008;-57
2024/04/21 10:51:31;;;;;;;3.17;1.90;;;9.70;97.90;;;;;;5329880;26;20013;-60
2024/04/21 10:53:56;;;;;;;5.07;1.80;;;9.80;97.10;;;;;;5344674;26;20044;-58
2024/04/21 10:56:22;;;;;;;1.92;1.30;;;9.90;96.00;;;;;;5319912;26;20458;-56
2024/04/21 10:58:48;;;;;;;3.45;1.15;;;9.90;95.70;;;;;;5383094;26;20014;-58
2024/04/21 11:01:14;;;;;;;1.92;1.25;;;9.80;93.60;;;;;;5369691;26;20019;-58
2024/04/21 11:03:41;;;;;;;2.10;1.35;;;9.50;94.00;;;;;;5371513;26;20427;-58
2024/04/21 11:06:08;;;;;;;1.77;1.15;;;9.70;95.50;;;;;;5378543;26;20000;-55
2024/04/21 11:08:34;;;;;;;3.33;1.40;;;9.80;94.80;;;;;;5369233;26;20047;-56
2024/04/21 11:11:00;;;;;;;3.53;1.00;;;10.10;95.20;;;;;;5377095;26;20444;-58
2024/04/21 11:13:30;;;;;;;4.15;1.10;;;10.40;94.90;;;;;;5370426;26;20013;-58
2024/04/21 11:15:56;;;;;;;3.33;1.10;;;10.70;93.50;;;;;;5371721;26;20004;-59
2024/04/21 11:18:22;;;;;;;2.17;1.20;;;10.80;92.50;;;;;;5376094;26;20015;-57
2024/04/21 11:20:48;;;;;;;4.85;1.50;;;10.40;91.90;;;;;;5376161;26;20480;-58
2024/04/21 11:23:18;;;;;;;2.25;1.30;;;9.80;93.40;;;;;;5374301;26;20393;-55
2024/04/21 11:25:47;;;;;;;1.70;1.10;;;9.60;95.20;;;;;;5369807;26;20311;-56
2024/04/21 11:28:15;;;;;;;13.20;1.30;;;9.40;94.80;;;;;;5365594;26;20074;-57
2024/04/21 11:30:42;;;;;;;4.13;1.77;;;9.10;94.60;;;;;;5374007;26;20010;-56
2024/04/21 11:33:08;;;;;;;1.95;1.27;;;9.00;95.10;;;;;;5375530;26;20012;-55
2024/04/21 11:35:35;;;;;;;1.60;0.93;;;9.50;97.00;;;;;;5372686;26;20016;-59
2024/04/21 11:38:00;;;;;;;2.85;1.35;;;10.10;96.40;;;;;;5370164;26;20083;-59
2024/04/21 11:40:26;;;;;;;5.90;1.95;;;10.30;94.10;;;;;;5364818;26;19996;-58
2024/04/21 11:42:51;;;;;;;3.92;2.38;;;10.60;94.50;;;;;;5362134;26;20051;-59
2024/04/21 11:45:27;;;;;;;2.58;1.52;;;10.20;94.70;;;;;;5362934;26;20071;-56
2024/04/21 11:47:57;;;;;;;1.98;1.50;;;10.10;94.60;;;;;;5367179;26;20008;-58
2024/04/21 11:50:23;;;;;;;2.45;1.50;;;9.80;98.20;;;;;;5369447;26;20004;-57
2024/04/21 11:52:49;;;;;;;2.92;1.48;;;9.30;99.40;;;;;;5380732;26;20016;-55
2024/04/21 11:55:15;;;;;;;2.17;1.50;;;9.20;99.80;;;;;;5364161;26;20094;-58
2024/04/21 11:57:42;;;;;;;2.33;1.70;;;9.20;99.50;;;;;;5355518;26;20102;-58
2024/04/21 12:00:08;;;;;;;5.55;2.22;;;9.20;99.20;;;;;;5375591;26;20031;-59
2024/04/21 12:02:34;;;;;;;2.20;1.63;;;9.10;99.90;;;;;;5374436;26;20429;-59
2024/04/21 12:04:59;;;;;;;2.05;1.60;;;9.30;99.60;;;;;;5360683;26;20056;-59
2024/04/21 12:07:25;;;;;;;1.88;1.38;;;9.20;98.50;;;;;;5367557;26;20015;-56
2024/04/21 12:09:50;;;;;;;2.42;1.75;;;9.10;97.40;;;;;;5370267;26;20024;-56
2024/04/21 12:12:16;;;;;;;2.00;1.20;;;8.80;98.20;;;;;;5376273;26;20000;-56
2024/04/21 12:14:42;;;;;;;4.05;1.80;;;8.70;99.20;;;;;;5372860;26;20078;-57
2024/04/21 12:17:08;;;;;;;2.60;1.45;;;8.80;99.40;;;;;;5360161;26;20472;-55
2024/04/21 12:19:34;;;;;;;2.42;1.55;;;9.00;99.80;;;;;;5367014;26;20000;-59
2024/04/21 12:22:01;;;;;;;2.92;1.95;;;9.30;96.50;;;;;;5370790;26;20015;-57
2024/04/21 12:24:26;;;;;;;2.63;1.38;;;9.60;97.20;;;;;;5373024;26;19997;-56
2024/04/21 12:26:52;;;;;;;3.33;1.73;;;9.90;96.20;;;;;;5373573;26;20454;-57
2024/04/21 12:29:17;;;;;;;2.72;1.45;;;10.10;95.20;;;;;;5368395;26;20449;-55
2024/04/21 12:31:43;;;;;;;2.28;1.40;;;9.80;95.20;;;;;;5372134;26;20000;-58
2024/04/21 12:34:09;;;;;;;3.75;1.13;;;9.60;95.20;;;;;;5377539;26;20000;-55
2024/04/21 12:36:35;;;;;;;1.35;0.80;;;9.20;92.90;;;;;;5375052;26;20051;-58
2024/04/21 12:39:02;;;;;;;3.63;1.10;;;9.00;92.90;;;;;;5369413;26;20008;-56
2024/04/21 12:41:27;;;;;;;2.28;0.75;;;8.90;93.30;;;;;;5379757;26;20018;-58
2024/04/21 12:43:53;;;;;;;1.08;0.90;;;8.90;92.70;;;;;;5376920;26;20044;-58